createdAt,value
2017-11-06T00:00:08.366Z,1.42
2017-11-06T00:02:35.974Z,1.70
2017-11-06T00:05:03.587Z,1.60
2017-11-06T00:07:31.215Z,1.73
2017-11-06T00:09:58.827Z,1.80
2017-11-06T00:12:26.426Z,1.85
2017-11-06T00:14:53.998Z,1.90
2017-11-06T00:17:21.569Z,2.58
2017-11-06T00:19:49.178Z,2.42
2017-11-06T00:22:16.782Z,2.42
2017-11-06T00:24:44.394Z,2.12
2017-11-06T00:27:12.000Z,2.20
2017-11-06T00:29:39.571Z,2.67
2017-11-06T00:32:07.175Z,2.78
2017-11-06T00:34:34.774Z,2.58
2017-11-06T00:37:02.394Z,2.80
2017-11-06T00:39:29.994Z,2.58
2017-11-06T00:41:57.563Z,3.28
2017-11-06T00:44:25.167Z,3.30
2017-11-06T00:46:52.763Z,3.10
2017-11-06T00:49:20.362Z,2.75
2017-11-06T00:51:47.978Z,3.12
2017-11-06T00:54:15.587Z,2.60
2017-11-06T00:56:43.187Z,3.10
2017-11-06T00:59:10.782Z,2.92
2017-11-06T01:01:38.714Z,3.55
2017-11-06T01:04:06.274Z,3.92
2017-11-06T01:06:33.870Z,4.20
2017-11-06T01:09:01.437Z,3.75
2017-11-06T01:11:28.961Z,4.07
2017-11-06T01:13:56.571Z,5.22
2017-11-06T01:16:24.177Z,5.20
2017-11-06T01:18:51.782Z,5.00
2017-11-06T01:21:19.388Z,5.50
2017-11-06T01:23:47.002Z,5.30
2017-11-06T01:26:14.610Z,5.40
2017-11-06T01:28:42.263Z,6.25
2017-11-06T01:31:10.706Z,6.32
2017-11-06T01:33:38.310Z,6.60
2017-11-06T01:36:05.886Z,6.87
2017-11-06T01:38:33.468Z,6.10
2017-11-06T01:41:01.071Z,6.78
2017-11-06T01:43:28.676Z,6.53
2017-11-06T01:45:56.291Z,7.37
2017-11-06T01:48:23.860Z,7.50
2017-11-06T01:50:51.499Z,7.60
2017-11-06T01:53:19.077Z,7.95
2017-11-06T01:55:46.691Z,7.82
2017-11-06T01:58:14.301Z,8.77
2017-11-06T02:00:41.934Z,8.10
2017-11-06T02:03:09.910Z,9.30
2017-11-06T02:05:37.515Z,8.90
2017-11-06T02:08:05.086Z,8.88
2017-11-06T02:10:32.728Z,9.40
2017-11-06T02:13:01.122Z,8.73
2017-11-06T02:15:28.694Z,9.13
2017-11-06T02:17:56.346Z,8.07
2017-11-06T02:20:25.778Z,9.52
2017-11-06T02:22:53.374Z,9.50
2017-11-06T02:25:20.937Z,11.25
2017-11-06T02:27:48.567Z,10.27
2017-11-06T02:30:16.203Z,11.12
2017-11-06T02:32:43.833Z,11.00
2017-11-06T02:35:12.185Z,12.13
2017-11-06T02:37:39.988Z,11.57
2017-11-06T02:40:07.584Z,11.82
2017-11-06T02:42:35.161Z,12.07
2017-11-06T02:45:02.756Z,12.90
2017-11-06T02:47:30.454Z,12.90
2017-11-06T02:49:58.030Z,12.55
2017-11-06T02:52:25.600Z,13.68
2017-11-06T02:54:53.227Z,13.25
2017-11-06T02:57:20.838Z,14.40
2017-11-06T02:59:48.414Z,13.75
2017-11-06T03:02:16.034Z,14.55
2017-11-06T03:04:43.606Z,14.27
2017-11-06T03:07:11.171Z,14.30
2017-11-06T03:09:38.783Z,14.18
2017-11-06T03:12:06.399Z,14.85
2017-11-06T03:14:34.024Z,14.43
2017-11-06T03:17:01.599Z,15.52
2017-11-06T03:19:29.182Z,15.73
2017-11-06T03:21:56.798Z,14.87
2017-11-06T03:24:24.446Z,13.82
2017-11-06T03:26:52.062Z,14.65
2017-11-06T03:29:19.644Z,13.70
2017-11-06T03:31:47.994Z,14.23
2017-11-06T03:34:15.569Z,15.02
2017-11-06T03:36:43.182Z,14.80
2017-11-06T03:39:10.754Z,14.23
2017-11-06T03:41:38.364Z,14.50
2017-11-06T03:44:05.978Z,14.98
2017-11-06T03:46:33.586Z,13.75
2017-11-06T03:49:01.199Z,13.25
2017-11-06T03:51:28.769Z,13.73
2017-11-06T03:53:56.382Z,13.82
2017-11-06T03:56:24.730Z,14.30
2017-11-06T03:58:52.353Z,13.60
2017-11-06T04:01:19.969Z,13.32
2017-11-06T04:03:48.302Z,13.55
2017-11-06T04:06:15.954Z,14.35
2017-11-06T04:08:43.526Z,13.88
2017-11-06T04:11:11.131Z,13.10
2017-11-06T04:13:38.743Z,12.70
2017-11-06T04:16:06.310Z,13.27
2017-11-06T04:18:33.918Z,14.15
2017-11-06T04:21:01.538Z,14.18
2017-11-06T04:23:29.165Z,12.40
2017-11-06T04:25:56.732Z,13.15
2017-11-06T04:28:24.306Z,12.93
2017-11-06T04:30:51.962Z,12.40
2017-11-06T04:33:19.576Z,11.32
2017-11-06T04:35:47.210Z,10.93
2017-11-06T04:38:14.794Z,10.57
2017-11-06T04:40:42.398Z,9.52
2017-11-06T04:43:10.006Z,10.20
2017-11-06T04:45:37.627Z,9.13
2017-11-06T04:48:05.226Z,9.68
2017-11-06T04:50:33.169Z,9.95
2017-11-06T04:53:00.735Z,9.65
2017-11-06T04:55:28.384Z,10.50
2017-11-06T04:57:55.986Z,10.80
2017-11-06T05:00:23.673Z,11.00
2017-11-06T05:02:51.273Z,11.48
2017-11-06T05:05:18.874Z,11.90
2017-11-06T05:07:46.483Z,11.65
2017-11-06T05:10:14.094Z,13.10
2017-11-06T05:12:41.822Z,12.27
2017-11-06T05:15:09.433Z,13.30
2017-11-06T05:17:37.039Z,11.95
2017-11-06T05:20:04.644Z,11.63
2017-11-06T05:22:32.256Z,11.25
2017-11-06T05:24:59.862Z,11.98
2017-11-06T05:27:27.463Z,11.95
2017-11-06T05:29:55.068Z,11.52
2017-11-06T05:32:22.634Z,12.23
2017-11-06T05:34:50.243Z,12.68
2017-11-06T05:37:17.850Z,11.70
2017-11-06T05:39:45.458Z,11.30
2017-11-06T05:42:13.038Z,12.20
2017-11-06T05:44:40.658Z,10.65
2017-11-06T05:47:08.230Z,10.10
2017-11-06T05:49:35.803Z,10.43
2017-11-06T05:52:03.415Z,11.50
2017-11-06T05:54:30.985Z,10.50
2017-11-06T05:56:58.604Z,10.38
2017-11-06T05:59:26.214Z,11.12
2017-11-06T06:01:53.823Z,11.55
2017-11-06T06:04:21.435Z,13.68
2017-11-06T06:06:49.002Z,12.63
2017-11-06T06:09:16.706Z,11.80
2017-11-06T06:11:44.273Z,11.12
2017-11-06T06:14:11.883Z,12.90
2017-11-06T06:16:40.279Z,12.95
2017-11-06T06:19:08.611Z,12.85
2017-11-06T06:21:36.184Z,10.95
2017-11-06T06:24:03.755Z,11.75
2017-11-06T06:26:31.362Z,9.80
2017-11-06T06:28:58.962Z,9.95
2017-11-06T06:31:26.566Z,25.35
2017-11-06T06:33:54.174Z,14.23
2017-11-06T06:36:21.795Z,19.23
2017-11-06T06:38:49.410Z,16.10
2017-11-06T06:41:17.020Z,13.90
2017-11-06T06:43:44.627Z,11.90
2017-11-06T06:46:12.233Z,12.40
2017-11-06T06:48:39.859Z,22.00
2017-11-06T06:51:07.470Z,10.00
2017-11-06T06:53:35.087Z,9.80
2017-11-06T06:56:02.701Z,19.60
2017-11-06T06:58:30.318Z,25.73
2017-11-06T07:00:57.951Z,14.70
2017-11-06T07:03:25.526Z,12.27
2017-11-06T07:05:53.096Z,10.23
2017-11-06T07:08:20.705Z,11.02
2017-11-06T07:10:48.311Z,9.48
2017-11-06T07:13:15.914Z,10.57
2017-11-06T07:15:43.496Z,10.00
2017-11-06T07:18:11.114Z,10.35
2017-11-06T07:20:38.720Z,9.95
2017-11-06T07:23:06.298Z,9.57
2017-11-06T07:25:33.925Z,10.00
2017-11-06T07:28:01.541Z,10.48
2017-11-06T07:30:29.151Z,11.63
2017-11-06T07:32:56.767Z,10.68
2017-11-06T07:35:24.336Z,10.82
2017-11-06T07:37:52.808Z,11.52
2017-11-06T07:40:21.195Z,9.82
2017-11-06T07:42:49.592Z,10.80
2017-11-06T07:45:17.198Z,9.93
2017-11-06T07:47:44.810Z,11.68
2017-11-06T07:50:12.422Z,11.12
2017-11-06T07:52:39.986Z,10.90
2017-11-06T07:55:07.591Z,10.95
2017-11-06T07:57:35.293Z,10.38
2017-11-06T08:00:02.879Z,11.38
2017-11-06T08:02:30.526Z,11.10
2017-11-06T08:04:58.106Z,12.60
2017-11-06T08:07:25.675Z,11.18
2017-11-06T08:09:53.274Z,12.95
2017-11-06T08:12:20.844Z,14.10
2017-11-06T08:14:48.458Z,15.65
2017-11-06T08:17:16.027Z,14.70
2017-11-06T08:19:43.637Z,13.80
2017-11-06T08:22:11.242Z,14.18
2017-11-06T08:24:39.125Z,14.82
2017-11-06T08:27:07.515Z,19.35
2017-11-06T08:29:35.123Z,16.08
2017-11-06T08:32:02.754Z,14.95
2017-11-06T08:34:30.370Z,18.70
2017-11-06T08:36:57.990Z,21.85
2017-11-06T08:39:25.594Z,17.83
2017-11-06T08:41:53.209Z,15.27
2017-11-06T08:44:20.810Z,15.60
2017-11-06T08:46:48.420Z,17.65
2017-11-06T08:49:16.000Z,17.30
2017-11-06T08:51:43.606Z,14.95
2017-11-06T08:54:11.939Z,14.82
2017-11-06T08:56:39.551Z,15.10
2017-11-06T08:59:07.167Z,16.23
2017-11-06T09:01:34.784Z,16.55
2017-11-06T09:04:02.398Z,16.25
2017-11-06T09:06:29.976Z,16.12
2017-11-06T09:08:57.584Z,15.25
2017-11-06T09:11:25.201Z,16.75
2017-11-06T09:13:52.821Z,14.68
2017-11-06T09:16:20.413Z,27.20
2017-11-06T09:18:47.983Z,18.75
2017-11-06T09:21:15.595Z,25.08
2017-11-06T09:23:43.165Z,34.45
2017-11-06T09:26:10.825Z,35.10
2017-11-06T09:28:38.432Z,28.42
2017-11-06T09:31:06.003Z,21.10
2017-11-06T09:33:34.340Z,21.12
2017-11-06T09:36:01.950Z,16.92
2017-11-06T09:38:29.554Z,18.33
2017-11-06T09:40:57.170Z,17.65
2017-11-06T09:43:24.787Z,18.08
2017-11-06T09:45:52.395Z,17.67
2017-11-06T09:48:20.006Z,16.40
2017-11-06T09:50:47.626Z,15.15
2017-11-06T09:53:15.241Z,17.35
2017-11-06T09:55:42.810Z,17.85
2017-11-06T09:58:10.415Z,13.95
2017-11-06T10:00:37.981Z,14.02
2017-11-06T10:03:05.605Z,27.15
2017-11-06T10:05:33.213Z,29.23
2017-11-06T10:08:00.819Z,21.08
2017-11-06T10:10:28.450Z,15.55
2017-11-06T10:12:56.066Z,12.75
2017-11-06T10:15:23.637Z,16.73
2017-11-06T10:17:51.242Z,11.23
2017-11-06T10:20:18.855Z,12.32
2017-11-06T10:22:46.464Z,23.80
2017-11-06T10:25:14.073Z,11.35
2017-11-06T10:27:41.691Z,14.68
2017-11-06T10:30:09.321Z,17.10
2017-11-06T10:32:36.935Z,13.65
2017-11-06T10:35:04.546Z,13.48
2017-11-06T10:37:32.172Z,11.07
2017-11-06T10:39:59.812Z,18.65
2017-11-06T10:42:27.429Z,33.50
2017-11-06T10:44:55.046Z,14.75
2017-11-06T10:47:22.654Z,9.60
2017-11-06T10:49:50.263Z,7.45
2017-11-06T10:52:17.883Z,9.55
2017-11-06T10:54:45.453Z,9.80
2017-11-06T10:57:13.031Z,8.88
2017-11-06T10:59:40.634Z,9.80
2017-11-06T11:02:08.205Z,10.43
2017-11-06T11:04:35.895Z,11.35
2017-11-06T11:07:03.463Z,11.15
2017-11-06T11:09:31.076Z,12.48
2017-11-06T11:11:58.688Z,14.10
2017-11-06T11:14:26.303Z,12.93
2017-11-06T11:16:53.930Z,17.77
2017-11-06T11:19:21.547Z,20.90
2017-11-06T11:21:49.154Z,15.93
2017-11-06T11:24:16.809Z,15.50
2017-11-06T11:26:44.431Z,13.93
2017-11-06T11:29:12.038Z,15.32
2017-11-06T11:31:39.667Z,17.30
2017-11-06T11:34:07.292Z,17.48
2017-11-06T11:36:34.923Z,18.73
2017-11-06T11:39:03.310Z,16.25
2017-11-06T11:41:31.710Z,16.35
2017-11-06T11:43:59.324Z,18.62
2017-11-06T11:46:26.895Z,20.80
2017-11-06T11:48:54.554Z,19.77
2017-11-06T11:51:22.163Z,18.05
2017-11-06T11:53:49.735Z,18.30
2017-11-06T11:56:17.350Z,31.25
2017-11-06T11:58:45.689Z,29.12
2017-11-06T12:01:13.303Z,20.62
2017-11-06T12:03:40.910Z,18.15
2017-11-06T12:06:15.362Z,16.87
2017-11-06T12:08:42.940Z,18.40
2017-11-06T12:11:11.283Z,17.70
2017-11-06T12:13:38.898Z,19.08
2017-11-06T12:16:06.505Z,20.95
2017-11-06T12:18:34.077Z,24.52
2017-11-06T12:21:01.691Z,21.87
2017-11-06T12:23:29.299Z,23.90
2017-11-06T12:25:56.922Z,22.87
2017-11-06T12:28:24.529Z,22.13
2017-11-06T12:30:52.147Z,22.70
2017-11-06T12:33:19.761Z,21.48
2017-11-06T12:35:47.367Z,23.17
2017-11-06T12:38:14.974Z,20.90
2017-11-06T12:40:42.547Z,20.30
2017-11-06T12:43:10.151Z,23.05
2017-11-06T12:45:37.715Z,19.98
2017-11-06T12:48:05.371Z,20.70
2017-11-06T12:50:32.987Z,29.30
2017-11-06T12:53:00.600Z,20.85
2017-11-06T12:55:28.207Z,20.73
2017-11-06T12:57:55.851Z,22.25
2017-11-06T13:00:23.463Z,21.20
2017-11-06T13:02:51.068Z,19.83
2017-11-06T13:05:18.684Z,19.37
2017-11-06T13:07:46.307Z,21.05
2017-11-06T13:10:13.920Z,20.15
2017-11-06T13:12:41.527Z,21.17
2017-11-06T13:15:09.186Z,22.00
2017-11-06T13:17:37.567Z,21.00
2017-11-06T13:20:05.953Z,21.35
2017-11-06T13:22:34.327Z,21.98
2017-11-06T13:25:01.947Z,18.60
2017-11-06T13:27:29.575Z,21.00
2017-11-06T13:32:32.883Z,17.77
2017-11-06T13:35:00.490Z,22.90
2017-11-06T13:37:28.098Z,19.92
2017-11-06T13:39:55.672Z,21.80
2017-11-06T13:42:23.281Z,16.52
2017-11-06T13:44:50.888Z,18.10
2017-11-06T13:47:18.506Z,25.55
2017-11-06T13:49:46.187Z,20.40
2017-11-06T13:52:14.582Z,21.20
2017-11-06T13:54:42.953Z,17.50
2017-11-06T13:57:11.325Z,17.90
2017-11-06T13:59:39.706Z,30.23
2017-11-06T14:02:08.039Z,33.47
2017-11-06T14:04:35.643Z,24.92
2017-11-06T14:07:03.257Z,23.20
2017-11-06T14:09:30.826Z,35.55
2017-11-06T14:11:58.491Z,21.98
2017-11-06T14:14:26.098Z,22.30
2017-11-06T14:16:53.705Z,20.80
2017-11-06T14:19:21.267Z,19.60
2017-11-06T14:21:50.784Z,18.90
2017-11-06T14:24:18.350Z,18.42
2017-11-06T14:26:45.919Z,19.87
2017-11-06T14:29:13.486Z,19.80
2017-11-06T14:31:41.291Z,20.83
2017-11-06T14:34:09.953Z,18.65
2017-11-06T14:36:38.291Z,18.55
2017-11-06T14:39:05.901Z,45.28
2017-11-06T14:41:33.512Z,87.85
2017-11-06T14:44:01.135Z,47.70
2017-11-06T14:46:28.703Z,42.17
2017-11-06T14:48:56.318Z,35.70
2017-11-06T14:51:23.925Z,35.70
2017-11-06T14:53:51.501Z,45.42
2017-11-06T14:56:19.110Z,39.28
2017-11-06T14:58:46.679Z,23.95
2017-11-06T15:01:14.376Z,43.70
2017-11-06T15:03:42.003Z,39.85
2017-11-06T15:06:09.620Z,42.00
2017-11-06T15:08:37.198Z,33.47
2017-11-06T15:11:04.782Z,28.20
2017-11-06T15:13:32.408Z,29.75
2017-11-06T15:15:59.994Z,27.95
2017-11-06T15:18:27.614Z,26.33
2017-11-06T15:20:55.232Z,24.83
2017-11-06T15:23:22.863Z,18.98
2017-11-06T15:25:50.482Z,19.52
2017-11-06T15:28:18.094Z,18.50
2017-11-06T15:30:45.706Z,17.27
2017-11-06T15:33:14.077Z,24.00
2017-11-06T15:35:41.658Z,21.48
2017-11-06T15:38:09.261Z,27.08
2017-11-06T15:40:36.866Z,26.20
2017-11-06T15:43:04.469Z,45.05
2017-11-06T15:45:32.047Z,29.10
2017-11-06T15:48:00.425Z,25.55
2017-11-06T15:50:28.767Z,39.65
2017-11-06T15:52:56.379Z,44.63
2017-11-06T15:55:23.983Z,21.12
2017-11-06T15:57:51.589Z,25.92
2017-11-06T16:00:19.196Z,35.50
2017-11-06T16:02:47.011Z,38.92
2017-11-06T16:05:15.356Z,57.28
2017-11-06T16:07:42.971Z,92.35
2017-11-06T16:10:10.583Z,50.22
2017-11-06T16:12:38.233Z,28.00
2017-11-06T16:15:05.811Z,28.65
2017-11-06T16:17:33.421Z,40.45
2017-11-06T16:20:01.027Z,59.25
2017-11-06T16:22:28.596Z,44.72
2017-11-06T16:24:56.206Z,32.42
2017-11-06T16:27:23.861Z,22.75
2017-11-06T16:29:51.531Z,21.95
2017-11-06T16:32:19.106Z,21.33
2017-11-06T16:34:46.678Z,22.50
2017-11-06T16:37:14.285Z,20.80
2017-11-06T16:39:42.866Z,22.30
2017-11-06T16:42:11.250Z,20.67
2017-11-06T16:44:39.692Z,21.05
2017-11-06T16:47:07.298Z,21.20
2017-11-06T16:49:34.925Z,20.88
2017-11-06T16:52:02.663Z,21.70
2017-11-06T16:54:30.262Z,20.55
2017-11-06T16:56:57.827Z,20.33
2017-11-06T16:59:25.436Z,21.10
2017-11-06T17:01:53.050Z,21.98
2017-11-06T17:04:20.815Z,20.02
2017-11-06T17:06:48.441Z,20.75
2017-11-06T17:09:16.066Z,22.00
2017-11-06T17:11:44.448Z,19.40
2017-11-06T17:14:12.100Z,20.70
2017-11-06T17:16:57.530Z,20.15
2017-11-06T17:19:28.311Z,19.23
2017-11-06T17:21:56.704Z,20.17
2017-11-06T17:24:24.327Z,20.17
2017-11-06T17:26:51.984Z,21.58
2017-11-06T17:29:19.799Z,18.62
2017-11-06T17:31:47.431Z,19.58
2017-11-06T17:34:19.202Z,20.67
2017-11-06T17:36:47.582Z,21.17
2017-11-06T17:39:19.923Z,19.92
2017-11-06T17:41:47.538Z,20.42
2017-11-06T17:44:15.146Z,20.27
2017-11-06T17:46:42.860Z,22.23
2017-11-06T17:49:10.472Z,22.23
2017-11-06T17:51:38.095Z,22.25
2017-11-06T17:54:05.715Z,21.30
2017-11-06T17:56:34.098Z,22.20
2017-11-06T17:59:01.677Z,21.87
2017-11-06T18:01:29.291Z,21.67
2017-11-06T18:03:56.864Z,20.00
2017-11-06T18:06:25.219Z,20.85
2017-11-06T18:08:52.794Z,20.35
2017-11-06T18:11:20.454Z,22.65
2017-11-06T18:13:48.080Z,20.40
2017-11-06T18:16:15.705Z,22.02
2017-11-06T18:18:43.430Z,20.42
2017-11-06T18:21:11.007Z,21.52
2017-11-06T18:23:38.588Z,21.58
2017-11-06T18:26:06.964Z,20.75
2017-11-06T18:28:34.575Z,20.42
2017-11-06T18:31:02.383Z,19.48
2017-11-06T18:33:30.767Z,20.95
2017-11-06T18:35:58.439Z,20.60
2017-11-06T18:38:26.059Z,20.60
2017-11-06T18:40:53.685Z,20.88
2017-11-06T18:43:21.307Z,20.50
2017-11-06T18:45:48.934Z,19.75
2017-11-06T18:48:16.613Z,21.17
2017-11-06T18:50:47.530Z,19.75
2017-11-06T18:53:15.143Z,21.48
2017-11-06T18:55:42.854Z,19.98
2017-11-06T18:58:10.492Z,19.17
2017-11-06T19:00:38.037Z,20.17
2017-11-06T19:03:05.626Z,20.48
2017-11-06T19:05:33.251Z,20.52
2017-11-06T19:08:01.601Z,19.23
2017-11-06T19:10:29.263Z,19.10
2017-11-06T19:12:56.884Z,18.65
2017-11-06T19:15:24.534Z,18.87
2017-11-06T19:17:52.194Z,18.10
2017-11-06T19:20:19.861Z,18.10
2017-11-06T19:22:47.594Z,18.33
2017-11-06T19:25:16.066Z,19.30
2017-11-06T19:27:43.716Z,18.98
2017-11-06T19:30:11.342Z,19.70
2017-11-06T19:32:39.234Z,20.42
2017-11-06T19:35:06.817Z,20.67
2017-11-06T19:37:34.398Z,20.10
2017-11-06T19:40:02.019Z,21.15
2017-11-06T19:42:29.642Z,21.50
2017-11-06T19:44:57.524Z,22.27
2017-11-06T19:47:25.207Z,22.08
2017-11-06T19:49:52.837Z,22.40
2017-11-06T19:52:20.491Z,23.55
2017-11-06T19:54:48.152Z,23.17
2017-11-06T19:57:15.849Z,23.60
2017-11-06T19:59:43.505Z,23.83
2017-11-06T20:02:11.090Z,24.15
2017-11-06T20:04:38.776Z,24.15
2017-11-06T20:07:07.160Z,22.50
2017-11-06T20:09:34.813Z,24.70
2017-11-06T20:12:03.218Z,26.35
2017-11-06T20:14:30.963Z,25.08
2017-11-06T20:17:00.800Z,23.80
2017-11-06T20:19:28.596Z,23.02
2017-11-06T20:21:56.234Z,22.95
2017-11-06T20:24:23.832Z,23.60
2017-11-06T20:26:51.986Z,23.40
2017-11-06T20:29:19.899Z,23.15
2017-11-06T20:31:47.554Z,22.80
2017-11-06T20:34:15.990Z,23.90
2017-11-06T20:36:43.612Z,24.25
2017-11-06T20:39:12.006Z,25.55
2017-11-06T20:41:39.821Z,27.50
2017-11-06T20:44:07.529Z,26.40
2017-11-06T20:46:35.189Z,24.77
2017-11-06T20:49:02.875Z,23.80
2017-11-06T20:51:30.465Z,23.50
2017-11-06T20:53:58.875Z,23.15
2017-11-06T20:56:27.284Z,22.60
2017-11-06T20:58:54.995Z,22.55
2017-11-06T21:01:22.622Z,22.73
2017-11-06T21:03:50.549Z,24.25
2017-11-06T21:06:18.891Z,22.65
2017-11-06T21:08:46.766Z,21.95
2017-11-06T21:11:14.383Z,24.27
2017-11-06T21:13:41.997Z,24.77
2017-11-06T21:16:09.606Z,24.23
2017-11-06T21:18:37.182Z,25.62
2017-11-06T21:21:04.773Z,25.95
2017-11-06T21:23:32.386Z,25.20
2017-11-06T21:25:59.992Z,25.35
2017-11-06T21:28:27.608Z,25.58
2017-11-06T21:30:55.241Z,24.90
2017-11-06T21:33:22.854Z,29.33
2017-11-06T21:35:50.479Z,28.02
2017-11-06T21:38:18.063Z,25.50
2017-11-06T21:40:45.646Z,27.00
2017-11-06T21:43:13.217Z,26.62
2017-11-06T21:45:40.830Z,26.15
2017-11-06T21:48:08.442Z,26.42
2017-11-06T21:50:36.229Z,25.52
2017-11-06T21:53:04.613Z,26.00
2017-11-06T21:55:32.227Z,26.30
2017-11-06T21:57:59.834Z,27.60
2017-11-06T22:00:28.324Z,27.80
2017-11-06T22:02:55.942Z,25.33
2017-11-06T22:05:23.519Z,26.52
2017-11-06T22:07:51.131Z,25.33
2017-11-06T22:10:18.738Z,27.17
2017-11-06T22:12:46.397Z,29.55
2017-11-06T22:15:14.012Z,28.98
2017-11-06T22:17:41.594Z,27.50
2017-11-06T22:20:09.214Z,28.77
2017-11-06T22:22:36.836Z,28.30
2017-11-06T22:25:04.412Z,30.20
2017-11-06T22:27:32.018Z,30.02
2017-11-06T22:30:00.455Z,29.45
2017-11-06T22:32:28.069Z,30.35
2017-11-06T22:34:55.682Z,30.52
2017-11-06T22:37:23.315Z,29.35
2017-11-06T22:39:50.934Z,29.63
2017-11-06T22:42:18.505Z,28.58
2017-11-06T22:44:46.119Z,31.25
2017-11-06T22:47:13.734Z,29.27
2017-11-06T22:49:41.347Z,29.63
2017-11-06T22:52:09.727Z,30.27
2017-11-06T22:54:38.119Z,30.92
2017-11-06T22:57:06.557Z,28.40
2017-11-06T22:59:34.166Z,28.23
2017-11-06T23:02:02.626Z,29.67
2017-11-06T23:04:30.235Z,29.02
2017-11-06T23:06:57.850Z,30.23
2017-11-06T23:09:26.230Z,28.65
2017-11-06T23:11:53.839Z,29.63
2017-11-06T23:14:21.450Z,28.90
2017-11-06T23:16:49.027Z,28.98
2017-11-06T23:19:16.647Z,30.10
2017-11-06T23:21:44.266Z,29.30
2017-11-06T23:24:11.839Z,31.67
2017-11-06T23:26:39.517Z,28.98
2017-11-06T23:29:07.130Z,30.42
2017-11-06T23:31:35.467Z,29.35
2017-11-06T23:34:03.114Z,30.20
2017-11-06T23:36:30.700Z,31.65
2017-11-06T23:38:58.327Z,28.87
2017-11-06T23:41:26.048Z,30.00
2017-11-06T23:43:54.388Z,28.85
2017-11-06T23:46:21.956Z,27.60
2017-11-06T23:48:49.573Z,27.42
2017-11-06T23:51:17.190Z,28.90
2017-11-06T23:53:44.811Z,28.90
2017-11-06T23:56:12.430Z,26.92
2017-11-06T23:58:40.047Z,27.00
